createdAt,value
2022-11-27T00:00:21.469Z,0.57
2022-11-27T00:03:08.047Z,0.50
2022-11-27T00:05:36.277Z,0.60
2022-11-27T00:08:04.679Z,0.55
2022-11-27T00:10:32.787Z,0.73
2022-11-27T00:13:00.819Z,0.50
2022-11-27T00:18:14.456Z,0.93
2022-11-27T00:21:10.629Z,0.82
2022-11-27T00:23:59.625Z,1.17
2022-11-27T00:26:33.103Z,0.75
2022-11-27T00:29:04.690Z,0.70
2022-11-27T00:31:51.423Z,0.60
2022-11-27T00:34:56.778Z,0.77
2022-11-27T00:37:25.070Z,0.73
2022-11-27T00:39:53.176Z,0.93
2022-11-27T00:42:21.473Z,0.52
2022-11-27T00:45:08.625Z,0.52
2022-11-27T00:47:36.825Z,0.57
2022-11-27T00:50:05.715Z,0.60
2022-11-27T00:52:33.981Z,0.73
2022-11-27T00:57:47.774Z,0.60
2022-11-27T01:00:16.431Z,0.40
2022-11-27T01:02:46.205Z,0.60
2022-11-27T01:05:14.614Z,0.32
2022-11-27T01:07:42.880Z,0.60
2022-11-27T01:10:11.733Z,0.50
2022-11-27T01:12:58.358Z,0.80
2022-11-27T01:15:26.589Z,0.73
2022-11-27T01:17:54.777Z,0.43
2022-11-27T01:20:41.835Z,0.35
2022-11-27T01:23:10.064Z,0.60
2022-11-27T01:25:38.295Z,0.88
2022-11-27T01:28:06.481Z,0.50
2022-11-27T01:30:34.583Z,0.70
2022-11-27T01:33:21.308Z,0.43
2022-11-27T01:36:19.995Z,0.75
2022-11-27T01:38:48.447Z,0.40
2022-11-27T01:41:24.176Z,0.50
2022-11-27T01:44:02.368Z,0.57
2022-11-27T01:46:44.669Z,0.93
2022-11-27T01:49:31.319Z,0.50
2022-11-27T01:52:05.700Z,0.60
2022-11-27T01:54:47.447Z,0.90
2022-11-27T02:00:22.302Z,0.73
2022-11-27T02:02:50.671Z,0.52
2022-11-27T02:05:23.561Z,0.80
2022-11-27T02:07:53.420Z,0.57
2022-11-27T02:10:23.507Z,0.50
2022-11-27T02:13:01.471Z,0.47
2022-11-27T02:15:35.748Z,0.70
2022-11-27T02:18:28.986Z,0.50
2022-11-27T02:21:21.671Z,0.57
2022-11-27T02:24:10.942Z,0.70
2022-11-27T02:27:08.444Z,0.60
2022-11-27T02:29:37.117Z,0.60
2022-11-27T02:32:28.004Z,0.82
2022-11-27T02:35:04.662Z,0.60
2022-11-27T02:37:58.076Z,0.55
2022-11-27T02:40:56.091Z,0.32
2022-11-27T02:43:37.789Z,0.55
2022-11-27T02:46:08.661Z,0.73
2022-11-27T02:49:02.588Z,0.30
2022-11-27T02:54:49.142Z,0.40
2022-11-27T02:57:19.290Z,0.43
2022-11-27T02:59:49.012Z,0.50
2022-11-27T03:02:21.500Z,0.73
2022-11-27T03:04:53.892Z,0.68
2022-11-27T03:07:45.414Z,0.70
2022-11-27T03:10:20.373Z,0.50
2022-11-27T03:12:49.832Z,0.50
2022-11-27T03:15:18.276Z,0.68
2022-11-27T03:17:51.676Z,0.52
2022-11-27T03:20:38.814Z,0.43
2022-11-27T03:23:44.009Z,0.50
2022-11-27T03:26:31.320Z,0.75
2022-11-27T03:29:02.353Z,0.85
2022-11-27T03:31:31.747Z,1.13
2022-11-27T03:34:18.653Z,0.60
2022-11-27T03:36:47.142Z,0.90
2022-11-27T03:39:15.636Z,0.60
2022-11-27T03:42:05.195Z,0.65
2022-11-27T03:44:48.755Z,1.10
2022-11-27T03:48:13.235Z,1.27
2022-11-27T03:51:10.611Z,0.68
2022-11-27T03:54:04.499Z,0.85
2022-11-27T03:56:41.863Z,0.90
2022-11-27T04:02:56.628Z,1.17
2022-11-27T04:05:25.117Z,0.80
2022-11-27T04:08:11.852Z,1.05
2022-11-27T04:10:40.184Z,1.00
2022-11-27T04:13:08.252Z,0.90
2022-11-27T04:15:36.287Z,0.80
2022-11-27T04:18:04.553Z,0.90
2022-11-27T04:20:32.859Z,0.90
2022-11-27T04:23:01.099Z,0.80
2022-11-27T04:25:48.797Z,0.80
2022-11-27T04:28:18.062Z,1.08
2022-11-27T04:30:52.030Z,1.25
2022-11-27T04:33:20.245Z,0.90
2022-11-27T04:35:48.760Z,0.77
2022-11-27T04:38:17.047Z,0.90
2022-11-27T04:40:45.277Z,0.85
2022-11-27T04:43:14.018Z,1.00
2022-11-27T04:45:42.162Z,0.75
2022-11-27T04:48:28.600Z,1.02
2022-11-27T04:50:56.853Z,0.75
2022-11-27T04:53:25.013Z,0.60
2022-11-27T04:55:53.232Z,0.70
2022-11-27T04:58:58.986Z,0.55
2022-11-27T05:01:45.833Z,0.55
2022-11-27T05:04:14.240Z,0.47
2022-11-27T05:06:42.491Z,0.88
2022-11-27T05:09:10.649Z,0.68
2022-11-27T05:11:38.879Z,0.40
2022-11-27T05:14:15.873Z,0.98
2022-11-27T05:16:58.691Z,1.23
2022-11-27T05:19:29.328Z,1.05
2022-11-27T05:21:58.239Z,1.23
2022-11-27T05:25:03.520Z,0.70
2022-11-27T05:27:31.601Z,0.57
2022-11-27T05:29:59.894Z,0.70
2022-11-27T05:32:28.005Z,0.52
2022-11-27T05:35:33.530Z,0.70
2022-11-27T05:38:01.677Z,0.40
2022-11-27T05:40:29.806Z,0.50
2022-11-27T05:42:58.472Z,0.80
2022-11-27T05:45:29.665Z,0.57
2022-11-27T05:47:58.198Z,0.52
2022-11-27T05:50:26.988Z,0.88
2022-11-27T05:52:58.923Z,1.10
2022-11-27T05:55:45.388Z,0.52
2022-11-27T05:58:13.442Z,0.80
2022-11-27T06:00:41.504Z,0.95
2022-11-27T06:03:09.564Z,0.90
2022-11-27T06:05:41.534Z,0.73
2022-11-27T06:08:09.584Z,0.82
2022-11-27T06:10:39.955Z,0.95
2022-11-27T06:13:08.330Z,0.93
2022-11-27T06:15:38.238Z,0.90
2022-11-27T06:18:06.631Z,0.95
2022-11-27T06:20:35.978Z,1.00
2022-11-27T06:25:34.363Z,0.85
2022-11-27T06:28:21.111Z,0.82
2022-11-27T06:30:49.199Z,0.60
2022-11-27T06:33:17.245Z,0.77
2022-11-27T06:35:45.381Z,0.70
2022-11-27T06:38:33.717Z,0.63
2022-11-27T06:41:22.395Z,0.60
2022-11-27T06:44:10.743Z,0.70
2022-11-27T06:49:24.258Z,0.65
2022-11-27T06:51:52.351Z,1.02
2022-11-27T06:54:20.510Z,1.05
2022-11-27T06:56:51.464Z,1.27
2022-11-27T06:59:19.867Z,1.15
2022-11-27T07:01:48.250Z,0.88
2022-11-27T07:04:17.069Z,0.38
2022-11-27T07:06:45.158Z,0.57
2022-11-27T07:09:13.279Z,0.80
2022-11-27T07:11:41.272Z,0.60
2022-11-27T07:14:10.974Z,0.82
2022-11-27T07:16:39.072Z,0.70
2022-11-27T07:19:08.145Z,1.65
2022-11-27T07:21:37.573Z,1.00
2022-11-27T07:24:05.886Z,1.02
2022-11-27T07:26:34.003Z,0.80
2022-11-27T07:29:02.034Z,1.85
2022-11-27T07:31:30.903Z,0.80
2022-11-27T07:33:59.117Z,0.88
2022-11-27T07:36:30.117Z,0.68
2022-11-27T07:38:58.576Z,0.90
2022-11-27T07:41:32.138Z,0.40
2022-11-27T07:44:02.192Z,0.65
2022-11-27T07:46:30.733Z,0.70
2022-11-27T07:49:00.900Z,0.77
2022-11-27T07:51:29.362Z,0.70
2022-11-27T07:53:57.832Z,0.95
2022-11-27T07:56:25.996Z,0.52
2022-11-27T07:58:54.091Z,0.60
2022-11-27T08:01:22.561Z,0.73
2022-11-27T08:03:51.153Z,0.70
2022-11-27T08:06:24.567Z,0.40
2022-11-27T08:08:53.594Z,0.40
2022-11-27T08:11:40.235Z,0.70
2022-11-27T08:14:08.879Z,0.63
2022-11-27T08:16:36.991Z,0.70
2022-11-27T08:19:05.102Z,0.60
2022-11-27T08:21:33.966Z,0.90
2022-11-27T08:24:01.985Z,0.50
2022-11-27T08:26:30.105Z,0.50
2022-11-27T08:28:58.712Z,0.90
2022-11-27T08:31:26.844Z,1.77
2022-11-27T08:33:54.892Z,0.82
2022-11-27T08:36:26.919Z,1.10
2022-11-27T08:42:00.075Z,1.00
2022-11-27T08:44:28.140Z,1.00
2022-11-27T08:46:56.146Z,0.98
2022-11-27T08:49:24.253Z,1.20
2022-11-27T08:51:52.400Z,0.75
2022-11-27T08:54:20.395Z,0.60
2022-11-27T08:56:48.357Z,0.70
2022-11-27T08:59:16.463Z,0.70
2022-11-27T09:01:44.976Z,0.63
2022-11-27T09:04:13.090Z,1.00
2022-11-27T09:06:41.960Z,0.80
2022-11-27T09:09:10.298Z,1.65
2022-11-27T09:11:38.861Z,1.40
2022-11-27T09:14:07.249Z,1.42
2022-11-27T09:16:36.071Z,0.80
2022-11-27T09:19:04.120Z,1.25
2022-11-27T09:24:17.326Z,1.95
2022-11-27T09:26:45.232Z,1.70
2022-11-27T09:29:13.322Z,1.63
2022-11-27T09:31:41.382Z,1.23
2022-11-27T09:34:09.522Z,1.98
2022-11-27T09:36:37.554Z,1.40
2022-11-27T09:39:05.637Z,1.63
2022-11-27T09:41:55.385Z,1.55
2022-11-27T09:44:53.163Z,1.52
2022-11-27T09:47:29.822Z,1.65
2022-11-27T09:52:36.277Z,1.52
2022-11-27T09:55:13.756Z,1.60
2022-11-27T09:58:07.843Z,1.38
2022-11-27T10:00:35.900Z,1.73
2022-11-27T10:03:04.068Z,1.70
2022-11-27T10:06:00.779Z,1.30
2022-11-27T10:08:36.102Z,1.00
2022-11-27T10:11:42.562Z,1.10
2022-11-27T10:17:20.866Z,1.33
2022-11-27T10:20:41.325Z,1.50
2022-11-27T10:23:35.712Z,1.52
2022-11-27T10:26:14.226Z,1.23
2022-11-27T10:28:55.775Z,1.50
2022-11-27T10:31:45.977Z,2.15
2022-11-27T10:34:27.108Z,1.48
2022-11-27T10:36:57.061Z,1.23
2022-11-27T10:39:45.465Z,1.50
2022-11-27T10:42:21.205Z,1.38
2022-11-27T10:44:58.322Z,1.65
2022-11-27T10:47:33.316Z,1.50
2022-11-27T10:50:01.884Z,1.58
2022-11-27T10:52:30.043Z,1.38
2022-11-27T10:55:05.106Z,1.60
2022-11-27T10:57:52.916Z,1.67
2022-11-27T11:00:39.402Z,1.40
2022-11-27T11:03:07.750Z,1.60
2022-11-27T11:06:18.676Z,1.20
2022-11-27T11:08:25.681Z,1.23
2022-11-27T11:10:57.720Z,1.60
2022-11-27T11:13:40.921Z,1.45
2022-11-27T11:16:14.747Z,1.50
2022-11-27T11:18:51.234Z,1.13
2022-11-27T11:21:42.627Z,1.45
2022-11-27T11:24:22.730Z,1.90
2022-11-27T11:26:52.509Z,1.70
2022-11-27T11:29:37.966Z,1.33
2022-11-27T11:32:29.249Z,1.40
2022-11-27T11:35:04.443Z,1.70
2022-11-27T11:37:35.506Z,1.38
2022-11-27T11:42:57.573Z,1.85
2022-11-27T11:45:32.303Z,1.35
2022-11-27T11:48:22.416Z,1.40
2022-11-27T11:50:58.789Z,1.73
2022-11-27T11:53:35.728Z,1.25
2022-11-27T11:56:30.884Z,1.77
2022-11-27T11:59:20.983Z,1.52
2022-11-27T12:01:58.044Z,1.08
2022-11-27T12:04:50.119Z,1.08
2022-11-27T12:07:46.322Z,1.27
2022-11-27T12:10:58.475Z,1.20
2022-11-27T12:13:49.687Z,1.25
2022-11-27T12:16:20.515Z,1.45
2022-11-27T12:19:22.593Z,1.15
2022-11-27T12:21:59.539Z,1.80
2022-11-27T12:24:36.545Z,1.17
2022-11-27T12:27:19.721Z,1.30
2022-11-27T12:30:09.345Z,1.20
2022-11-27T12:33:04.453Z,1.65
2022-11-27T12:35:42.407Z,1.20
2022-11-27T12:38:16.122Z,1.30
2022-11-27T12:41:02.800Z,1.58
2022-11-27T12:43:38.868Z,1.33
2022-11-27T12:46:38.010Z,0.93
2022-11-27T12:49:30.243Z,1.45
2022-11-27T12:52:06.509Z,1.30
2022-11-27T12:54:48.240Z,1.23
2022-11-27T12:57:54.122Z,1.27
2022-11-27T13:00:25.130Z,0.88
2022-11-27T13:03:11.162Z,1.23
2022-11-27T13:05:46.784Z,1.15
2022-11-27T13:08:21.339Z,1.25
2022-11-27T13:11:01.342Z,1.02
2022-11-27T13:13:35.005Z,1.30
2022-11-27T13:16:41.509Z,1.30
2022-11-27T13:19:32.398Z,1.23
2022-11-27T13:22:03.984Z,1.38
2022-11-27T13:24:33.504Z,0.95
2022-11-27T13:27:07.678Z,2.15
2022-11-27T13:29:51.228Z,1.27
2022-11-27T13:32:29.646Z,1.80
2022-11-27T13:35:01.975Z,1.23
2022-11-27T13:37:39.589Z,0.90
2022-11-27T13:40:13.256Z,1.00
2022-11-27T13:42:45.825Z,1.17
2022-11-27T13:45:23.246Z,1.10
2022-11-27T13:47:52.351Z,1.48
2022-11-27T13:50:26.909Z,1.08
2022-11-27T13:53:23.517Z,1.23
2022-11-27T13:55:57.057Z,1.63
2022-11-27T13:58:36.871Z,0.90
2022-11-27T14:01:18.913Z,1.15
2022-11-27T14:03:47.857Z,0.82
2022-11-27T14:06:29.354Z,1.10
2022-11-27T14:09:15.852Z,0.95
2022-11-27T14:11:47.424Z,1.02
2022-11-27T14:14:21.703Z,1.10
2022-11-27T14:17:01.986Z,1.08
2022-11-27T14:19:34.784Z,0.90
2022-11-27T14:22:30.988Z,1.23
2022-11-27T14:24:58.996Z,0.98
2022-11-27T14:27:33.479Z,1.40
2022-11-27T14:30:22.959Z,1.10
2022-11-27T14:35:36.027Z,0.82
2022-11-27T14:38:12.122Z,1.02
2022-11-27T14:40:40.182Z,0.82
2022-11-27T14:46:05.781Z,0.98
2022-11-27T14:48:57.792Z,1.20
2022-11-27T14:51:31.696Z,1.10
2022-11-27T14:54:05.139Z,1.10
2022-11-27T14:56:36.220Z,1.30
2022-11-27T14:59:04.847Z,1.20
2022-11-27T15:01:37.867Z,1.55
2022-11-27T15:04:24.663Z,1.30
2022-11-27T15:06:53.546Z,1.10
2022-11-27T15:09:32.353Z,1.10
2022-11-27T15:12:15.883Z,0.98
2022-11-27T15:14:59.962Z,1.70
2022-11-27T15:17:31.228Z,0.80
2022-11-27T15:20:00.807Z,1.10
2022-11-27T15:22:28.836Z,1.00
2022-11-27T15:25:06.466Z,1.10
2022-11-27T15:27:46.722Z,0.98
2022-11-27T15:30:18.348Z,1.58
2022-11-27T15:32:51.978Z,1.05
2022-11-27T15:35:23.531Z,2.53
2022-11-27T15:38:11.308Z,2.30
2022-11-27T15:40:41.457Z,1.45
2022-11-27T15:43:13.832Z,1.45
2022-11-27T15:45:44.175Z,1.60
2022-11-27T15:48:17.159Z,1.00
2022-11-27T15:50:51.462Z,1.27
2022-11-27T15:53:19.974Z,1.00
2022-11-27T15:55:47.931Z,1.33
2022-11-27T15:58:16.269Z,0.95
2022-11-27T16:00:44.349Z,1.58
2022-11-27T16:03:13.551Z,1.10
2022-11-27T16:05:42.288Z,1.00
2022-11-27T16:08:13.250Z,1.27
2022-11-27T16:10:41.833Z,1.30
2022-11-27T16:13:09.871Z,1.10
2022-11-27T16:15:38.067Z,0.82
2022-11-27T16:18:07.497Z,0.85
2022-11-27T16:20:35.585Z,1.13
2022-11-27T16:23:03.647Z,1.05
2022-11-27T16:25:31.681Z,1.35
2022-11-27T16:28:03.083Z,0.80
2022-11-27T16:30:32.457Z,1.02
2022-11-27T16:33:20.194Z,1.40
2022-11-27T16:35:49.008Z,1.20
2022-11-27T16:38:17.870Z,1.67
2022-11-27T16:40:45.879Z,1.35
2022-11-27T16:43:14.674Z,0.95
2022-11-27T16:49:01.760Z,1.02
2022-11-27T16:51:34.317Z,1.00
2022-11-27T16:54:05.411Z,1.70
2022-11-27T16:56:35.762Z,1.25
2022-11-27T16:59:16.158Z,1.50
2022-11-27T17:01:45.995Z,1.60
2022-11-27T17:04:20.236Z,1.10
2022-11-27T17:06:49.790Z,1.83
2022-11-27T17:09:18.127Z,1.42
2022-11-27T17:11:48.999Z,1.48
2022-11-27T17:16:46.853Z,1.30
2022-11-27T17:19:16.184Z,1.20
2022-11-27T17:21:46.242Z,1.40
2022-11-27T17:27:01.887Z,1.40
2022-11-27T17:29:37.858Z,1.45
2022-11-27T17:32:25.282Z,1.35
2022-11-27T17:34:54.854Z,1.65
2022-11-27T17:37:23.744Z,1.70
2022-11-27T17:39:53.231Z,1.30
2022-11-27T17:42:23.031Z,1.30
2022-11-27T17:44:51.900Z,1.40
2022-11-27T17:47:19.940Z,1.25
2022-11-27T17:49:48.235Z,2.25
2022-11-27T17:52:16.976Z,1.30
2022-11-27T17:54:45.065Z,1.10
2022-11-27T17:57:13.883Z,1.60
2022-11-27T17:59:42.123Z,1.20
2022-11-27T18:02:12.180Z,1.55
2022-11-27T18:04:41.717Z,1.15
2022-11-27T18:07:09.711Z,1.60
2022-11-27T18:09:39.464Z,1.50
2022-11-27T18:12:08.888Z,1.63
2022-11-27T18:14:37.263Z,1.23
2022-11-27T18:17:07.395Z,1.63
2022-11-27T18:19:35.528Z,1.50
2022-11-27T18:22:03.644Z,1.20
2022-11-27T18:24:31.782Z,1.85
2022-11-27T18:27:09.158Z,1.70
2022-11-27T18:29:39.907Z,1.90
2022-11-27T18:32:08.755Z,1.60
2022-11-27T18:34:36.940Z,1.67
2022-11-27T18:37:05.721Z,2.28
2022-11-27T18:39:35.604Z,1.52
2022-11-27T18:42:05.323Z,1.58
2022-11-27T18:44:39.584Z,1.50
2022-11-27T18:47:14.151Z,1.77
2022-11-27T18:49:43.943Z,1.88
2022-11-27T18:52:13.862Z,1.60
2022-11-27T18:54:42.208Z,1.55
2022-11-27T18:59:56.943Z,1.63
2022-11-27T19:02:25.003Z,1.42
2022-11-27T19:04:53.137Z,1.40
2022-11-27T19:07:21.380Z,1.33
2022-11-27T19:09:49.347Z,2.72
2022-11-27T19:12:17.528Z,1.23
2022-11-27T19:14:45.722Z,1.50
2022-11-27T19:17:14.118Z,1.33
2022-11-27T19:19:57.448Z,1.60
2022-11-27T19:22:27.225Z,1.40
2022-11-27T19:24:57.337Z,1.33
2022-11-27T19:27:25.344Z,1.73
2022-11-27T19:29:53.424Z,1.83
2022-11-27T19:32:21.508Z,1.13
2022-11-27T19:34:50.968Z,1.50
2022-11-27T19:37:33.682Z,1.85
2022-11-27T19:40:02.781Z,1.38
2022-11-27T19:42:32.034Z,1.40
2022-11-27T19:45:39.031Z,1.63
2022-11-27T19:48:07.121Z,1.30
2022-11-27T19:50:35.214Z,1.38
2022-11-27T19:53:05.429Z,1.83
2022-11-27T19:55:34.986Z,1.30
2022-11-27T19:58:03.969Z,1.10
2022-11-27T20:00:32.154Z,1.27
2022-11-27T20:03:00.166Z,1.10
2022-11-27T20:05:28.079Z,1.70
2022-11-27T20:08:15.331Z,1.08
2022-11-27T20:10:49.892Z,1.02
2022-11-27T20:13:17.990Z,1.02
2022-11-27T20:15:46.676Z,0.73
2022-11-27T20:18:15.193Z,0.93
2022-11-27T20:20:43.846Z,1.30
2022-11-27T20:23:12.397Z,0.80
2022-11-27T20:25:42.396Z,0.93
2022-11-27T20:28:10.877Z,1.00
2022-11-27T20:30:41.318Z,0.85
2022-11-27T20:33:09.789Z,1.00
2022-11-27T20:35:42.201Z,0.60
2022-11-27T20:38:10.793Z,1.10
2022-11-27T20:40:39.854Z,0.60
2022-11-27T20:43:09.236Z,0.90
2022-11-27T20:45:39.361Z,0.95
2022-11-27T20:48:09.248Z,0.60
2022-11-27T20:50:39.018Z,0.93
2022-11-27T20:53:07.327Z,0.50
2022-11-27T20:55:35.590Z,0.90
2022-11-27T20:58:03.672Z,0.75
2022-11-27T21:00:32.219Z,0.55
2022-11-27T21:03:00.884Z,0.57
2022-11-27T21:05:29.405Z,0.75
2022-11-27T21:07:57.948Z,0.70
2022-11-27T21:10:26.037Z,0.82
2022-11-27T21:12:54.438Z,1.10
2022-11-27T21:15:22.563Z,0.60
2022-11-27T21:20:37.545Z,0.70
2022-11-27T21:23:05.688Z,0.70
2022-11-27T21:25:33.957Z,0.73
2022-11-27T21:28:01.868Z,0.55
2022-11-27T21:30:30.128Z,0.93
2022-11-27T21:32:58.165Z,0.73
2022-11-27T21:35:31.289Z,1.27
2022-11-27T21:38:00.824Z,0.60
2022-11-27T21:40:28.840Z,0.70
2022-11-27T21:42:57.142Z,0.50
2022-11-27T21:45:25.197Z,0.50
2022-11-27T21:47:54.027Z,0.60
2022-11-27T21:50:22.168Z,0.60
2022-11-27T21:52:52.693Z,0.70
2022-11-27T21:55:21.188Z,0.70
2022-11-27T21:57:49.221Z,0.43
2022-11-27T22:00:17.766Z,0.75
2022-11-27T22:02:45.915Z,0.50
2022-11-27T22:05:14.433Z,0.70
2022-11-27T22:07:42.401Z,0.40
2022-11-27T22:10:11.119Z,0.45
2022-11-27T22:12:39.178Z,0.70
2022-11-27T22:15:26.195Z,0.47
2022-11-27T22:17:54.469Z,0.47
2022-11-27T22:20:22.915Z,0.32
2022-11-27T22:23:09.445Z,0.30
2022-11-27T22:25:37.839Z,0.30
2022-11-27T22:28:06.419Z,0.43
2022-11-27T22:30:34.912Z,0.85
2022-11-27T22:33:03.489Z,0.50
2022-11-27T22:35:31.769Z,0.60
2022-11-27T22:38:00.085Z,0.50
2022-11-27T22:41:05.477Z,1.05
2022-11-27T22:43:37.219Z,0.73
2022-11-27T22:48:38.016Z,1.20
2022-11-27T22:51:06.424Z,1.25
2022-11-27T22:53:53.538Z,1.33
2022-11-27T22:56:21.964Z,1.42
2022-11-27T22:58:58.266Z,2.05
2022-11-27T23:01:34.876Z,1.55
2022-11-27T23:04:03.475Z,1.30
2022-11-27T23:06:31.695Z,2.40
2022-11-27T23:09:00.082Z,1.75
2022-11-27T23:11:28.998Z,2.47
2022-11-27T23:13:58.226Z,2.17
2022-11-27T23:16:45.173Z,1.27
2022-11-27T23:19:31.966Z,2.25
2022-11-27T23:22:00.058Z,2.63
2022-11-27T23:24:28.122Z,1.50
2022-11-27T23:26:56.306Z,1.77
2022-11-27T23:29:25.642Z,1.98
2022-11-27T23:31:53.949Z,1.73
2022-11-27T23:34:22.315Z,2.10
2022-11-27T23:37:08.923Z,1.48
2022-11-27T23:39:37.222Z,1.65
2022-11-27T23:42:05.691Z,2.20
2022-11-27T23:44:34.113Z,1.38
2022-11-27T23:47:02.316Z,2.83
2022-11-27T23:49:49.006Z,1.83
2022-11-27T23:52:17.897Z,1.60
2022-11-27T23:54:46.090Z,1.42
2022-11-27T23:57:32.576Z,1.83
